Data for 10/02/2014

Time Sea-Level Adjusted Pressure Absolute Pressure Temperature Relative Humidity Dew Point   
(mb) (inHg) (mb) (inHg) (C) (F) (%) (C) (F)
00:05 1019 30.09 849 25.07 2.6 36.6 72 -2 28.4
00:10 1019 30.09 849 25.07 2.4 36.4 72 -2.1 28.3
00:15 1019 30.09 849 25.07 2.4 36.3 73 -1.9 28.6
00:20 1019 30.09 849 25.07 2 35.7 75 -2 28.4
00:25 1019 30.09 849 25.07 1.8 35.3 75 -2 28.3
00:30 1019 30.09 849 25.07 1.7 35.1 76 -2 28.3
00:35 1019 30.09 849 25.07 1.9 35.4 75 -2.1 28.2
00:40 1019 30.09 849 25.07 1.9 35.5 75 -2.1 28.2
00:45 1019 30.09 849 25.07 1.9 35.4 75 -2 28.4
00:50 1019 30.09 848 25.04 1.8 35.3 75 -2.1 28.2
00:55 1019 30.09 848 25.04 2.1 35.8 73 -2.2 28
01:00 1019 30.09 848 25.04 2.2 36 73 -2.1 28.2
01:05 1019 30.09 848 25.04 2.2 36 73 -2.2 28.1
01:10 1019 30.09 848 25.04 2.2 36 73 -2.1 28.3
01:15 1019 30.09 848 25.04 2.2 35.9 73 -2.1 28.2
01:20 1019 30.09 848 25.04 2.3 36.1 72 -2.2 28.1
01:25 1019 30.09 848 25.04 2.5 36.4 72 -2 28.4
01:30 1019 30.09 848 25.04 2.4 36.4 73 -2 28.4
01:35 1019 30.09 848 25.04 2.3 36.1 73 -2 28.5
01:40 1019 30.09 848 25.04 2.2 35.9 74 -2 28.5
01:45 1019 30.09 848 25.04 2.1 35.9 74 -2.1 28.2
01:50 1019 30.09 848 25.04 2 35.5 76 -1.8 28.8
01:55 1019 30.09 848 25.04 1.6 34.9 76 -2.2 28
02:00 1019 30.09 848 25.04 1.8 35.2 73 -2.5 27.5
02:05 1019 30.09 848 25.04 1.9 35.4 73 -2.5 27.5
02:10 1019 30.09 848 25.04 1.9 35.5 70 -2.9 26.8
02:15 1019 30.09 848 25.04 2 35.6 74 -2.2 28.1
02:20 1019 30.09 848 25.04 1.9 35.4 72 -2.6 27.4
02:25 1019 30.09 849 25.07 1.8 35.3 73 -2.4 27.7
02:30 1019 30.09 849 25.07 1.9 35.4 72 -2.6 27.3
02:35 1019 30.09 849 25.07 2.1 35.9 71 -2.6 27.3
02:40 1019 30.09 848 25.04 2.4 36.4 65 -3.5 25.7
02:45 1019 30.09 848 25.04 3 37.4 66 -2.7 27.2
02:50 1019 30.09 848 25.04 3.1 37.5 69 -2 28.4
02:55 1019 30.09 848 25.04 2.7 36.9 70 -2.2 28.1
03:00 1019 30.09 848 25.04 2.6 36.7 72 -1.9 28.6
03:05 1019 30.09 849 25.07 2.4 36.3 74 -1.7 28.9
03:10 1019 30.09 849 25.07 2.6 36.8 71 -2.1 28.3
03:15 1019 30.09 848 25.04 3.1 37.6 68 -2.2 28.1
03:20 1019 30.09 848 25.04 3.2 37.8 69 -1.9 28.5
03:25 1019 30.09 848 25.04 3 37.4 69 -2.1 28.3
03:30 1019 30.09 848 25.04 3 37.3 69 -2.1 28.2
03:35 1019 30.09 848 25.04 3.1 37.5 68 -2.3 27.9
03:40 1019 30.09 848 25.04 3.3 38 67 -2.2 28.1
03:45 1019 30.09 848 25.04 3.5 38.3 66 -2.2 28.1
03:50 1019 30.09 848 25.04 3.6 38.5 67 -2 28.4
03:55 1019 30.09 848 25.04 3.6 38.4 66 -2.2 28.1
04:00 1019 30.09 848 25.04 3.7 38.7 66 -2 28.3
04:05 1019 30.09 848 25.04 3.7 38.7 66 -2 28.4
04:10 1019 30.09 848 25.04 3.7 38.6 67 -1.8 28.7
04:15 1019 30.09 848 25.04 3.5 38.2 68 -1.8 28.8
04:20 1019 30.09 848 25.04 3.3 38 69 -1.8 28.8
04:25 1019 30.09 848 25.04 3.3 37.9 70 -1.6 29.1
04:30 1019 30.09 848 25.04 3 37.5 73 -1.4 29.5
04:35 1019 30.09 848 25.04 2.8 37 74 -1.4 29.5
04:40 1019 30.09 848 25.04 2.6 36.7 74 -1.5 29.3
04:45 1019 30.09 848 25.04 2.6 36.6 74 -1.5 29.2
04:50 1019 30.09 848 25.04 2.6 36.6 73 -1.7 28.9
04:55 1019 30.09 848 25.04 2.7 36.8 72 -1.8 28.8
05:00 1019 30.09 848 25.04 2.7 36.9 72 -1.9 28.6
05:05 1019 30.09 848 25.04 2.7 36.9 72 -1.8 28.8
05:10 1019 30.09 848 25.04 2.5 36.6 73 -1.9 28.6
05:15 1019 30.09 848 25.04 2.5 36.5 72 -2.1 28.2
05:20 1019 30.09 848 25.04 2.3 36.2 73 -2.1 28.2
05:25 1019 30.09 848 25.04 2.4 36.2 71 -2.3 27.9
05:30 1019 30.09 848 25.04 2.3 36.1 72 -2.3 27.8
05:35 1019 30.09 848 25.04 2.3 36.1 69 -2.8 27
05:40 1019 30.09 848 25.04 2.6 36.6 70 -2.4 27.8
05:45 1019 30.09 848 25.04 2.6 36.7 68 -2.7 27.1
05:50 1019 30.09 848 25.04 2.8 37 68 -2.5 27.5
05:55 1019 30.09 848 25.04 2.8 37.1 67 -2.7 27.1
06:00 1019 30.09 848 25.04 2.8 37 71 -1.9 28.6
06:05 1019 30.09 848 25.04 2.2 35.9 72 -2.4 27.7
06:10 1019 30.09 848 25.04 2.3 36.2 69 -2.8 27
06:15 1019 30.09 848 25.04 2.3 36.2 72 -2.2 28
06:20 1019 30.09 848 25.04 1.7 35.1 72 -2.8 27
06:25 1019 30.09 848 25.04 2.1 35.7 70 -2.9 26.8
06:30 1019 30.09 848 25.04 2.3 36.2 69 -2.8 27
06:35 1019 30.09 848 25.04 2.3 36.2 69 -2.8 26.9
06:40 1019 30.09 848 25.04 2.4 36.2 67 -3.1 26.4
06:45 1019 30.09 848 25.04 2.4 36.3 68 -2.8 26.9
06:50 1019 30.09 848 25.04 2.2 36 70 -2.6 27.2
06:55 1019 30.09 848 25.04 1.8 35.2 72 -2.8 26.9
07:00 1019 30.09 848 25.04 2.1 35.8 68 -3.1 26.5
07:05 1019 30.09 848 25.04 2.7 36.9 66 -2.9 26.8
07:10 1019 30.09 848 25.04 2.5 36.5 69 -2.7 27.2
07:15 1019 30.09 848 25.04 2.8 37 65 -3.2 26.2
07:20 1019 30.09 849 25.07 3.3 37.9 64 -2.8 26.9
07:25 1019 30.09 849 25.07 3.7 38.7 63 -2.6 27.3
07:30 1020 30.12 849 25.07 3.8 38.8 66 -2.1 28.3
07:35 1020 30.12 849 25.07 3.9 39 63 -2.6 27.4
07:40 1020 30.12 849 25.07 4.4 40 62 -2.3 27.9
07:45 1020 30.12 849 25.07 4.7 40.4 59 -2.7 27.2
07:50 1020 30.12 849 25.07 5.4 41.7 55 -2.8 27
07:55 1020 30.12 849 25.07 5.8 42.5 55 -2.4 27.6
08:00 1020 30.12 849 25.07 6.4 43.5 55 -1.9 28.5
08:05 1020 30.12 849 25.07 6.9 44.4 52 -2.2 28.1
08:10 1020 30.12 849 25.07 7.1 44.7 53 -1.9 28.6
08:15 1020 30.12 849 25.07 7.6 45.6 50 -2.3 27.9
08:20 1020 30.12 849 25.07 8.1 46.6 48 -2.4 27.7
08:25 1020 30.12 849 25.07 8.5 47.3 46 -2.3 27.8
08:30 1020 30.12 849 25.07 9 48.1 46 -2 28.5
08:35 1020 30.12 849 25.07 9.1 48.3 45 -2.3 27.9
08:40 1020 30.12 849 25.07 9 48.2 45 -2.3 27.9
08:45 1020 30.12 849 25.07 9 48.3 45 -2.4 27.7
08:50 1020 30.12 849 25.07 9.2 48.6 44 -2.2 28
08:55 1020 30.12 849 25.07 9.2 48.5 45 -2.2 28
09:00 1020 30.12 849 25.07 9.3 48.8 43 -2.5 27.5
09:05 1020 30.12 849 25.07 9.5 49.1 45 -1.8 28.7
09:10 1020 30.12 849 25.07 9.7 49.5 44 -1.8 28.8
09:15 1020 30.12 849 25.07 10.2 50.3 42 -2 28.4
09:20 1020 30.12 849 25.07 11.1 51.9 36 -3.2 26.2
09:25 1020 30.12 849 25.07 11.5 52.7 34 -3.9 24.9
09:30 1020 30.12 849 25.07 11.1 52 34 -4.3 24.3
09:35 1020 30.12 849 25.07 10.9 51.6 33 -4.8 23.4
09:40 1020 30.12 849 25.07 10.7 51.3 34 -4.6 23.7
09:45 1020 30.12 849 25.07 10.6 51.1 33 -4.9 23.2
09:50 1020 30.12 849 25.07 10.6 51.1 34 -4.4 24.1
09:55 1020 30.12 849 25.07 10.4 50.8 35 -4.3 24.3
10:00 1020 30.12 849 25.07 10.5 51 33 -4.8 23.3
10:05 1020 30.12 849 25.07 10.6 51.1 33 -4.9 23.1
10:10 1020 30.12 849 25.07 10.7 51.3 34 -4.5 24
10:15 1020 30.12 849 25.07 10.9 51.6 33 -4.8 23.4
10:20 1020 30.12 849 25.07 11.5 52.6 30 -5.3 22.5
10:25 1020 30.12 849 25.07 11.9 53.4 30 -5.2 22.7
10:30 1020 30.12 850 25.1 11.8 53.3 30 -5.2 22.7
10:35 1020 30.12 850 25.1 12 53.6 31 -4.7 23.6
10:40 1020 30.12 849 25.07 12.2 53.9 29 -5.3 22.4
10:45 1020 30.12 850 25.1 12.4 54.4 28 -5.7 21.7
10:50 1020 30.12 849 25.07 13.2 55.7 26 -6 21.2
10:55 1020 30.12 849 25.07 12.9 55.2 27 -5.6 22
11:00 1020 30.12 849 25.07 12.8 55.1 26 -6 21.3
11:05 1020 30.12 849 25.07 12.8 55 26 -6.5 20.3
11:10 1020 30.12 850 25.1 12.8 55 27 -5.8 21.5
11:15 1020 30.12 850 25.1 13 55.3 26 -6.1 21.1
11:20 1020 30.12 850 25.1 13.2 55.7 32 -3.2 26.2
11:25 1020 30.12 850 25.1 12.3 54.1 33 -3.4 25.9
11:30 1021 30.15 850 25.1 11.7 53 36 -3 26.6
11:35 1021 30.15 850 25.1 12 53.7 37 -2.1 28.3
11:40 1021 30.15 850 25.1 12.2 54 37 -1.9 28.6
11:45 1021 30.15 850 25.1 11.6 52.8 38 -2.2 28
11:50 1021 30.15 850 25.1 11.6 52.9 39 -1.7 28.9
11:55 1021 30.15 850 25.1 10.8 51.4 46 -0.3 31.5
12:00 1021 30.15 850 25.1 10.1 50.3 46 -0.9 30.3
12:05 1021 30.15 850 25.1 10 50.1 48 -0.3 31.5
12:10 1021 30.15 850 25.1 9 48.2 48 -1.3 29.7
12:15 1021 30.15 850 25.1 8.8 47.8 50 -1.1 30
12:20 1021 30.15 851 25.13 8.7 47.6 49 -1.4 29.5
12:25 1021 30.15 851 25.13 8.4 47.1 50 -1.4 29.5
12:30 1021 30.15 851 25.13 8.5 47.4 50 -1.3 29.7
12:35 1022 30.18 851 25.13 8.4 47.1 51 -1.2 29.8
12:40 1022 30.18 851 25.13 8.4 47.1 49 -1.6 29.2
12:45 1022 30.18 851 25.13 8.4 47 51 -1.2 29.9
12:50 1022 30.18 851 25.13 7.8 46.1 52 -1.5 29.3
12:55 1022 30.18 851 25.13 8.1 46.5 49 -2 28.3
13:00 1022 30.18 851 25.13 8.2 46.7 48 -2.1 28.3
13:05 1022 30.18 851 25.13 8.2 46.8 48 -2.1 28.2
13:10 1022 30.18 851 25.13 8.3 47 47 -2.2 28
13:15 1022 30.18 851 25.13 8.3 46.9 49 -1.9 28.5
13:20 1022 30.18 852 25.16 8.4 47.2 47 -2.1 28.3
13:25 1023 30.21 852 25.16 8.3 46.9 47 -2.3 27.9
13:30 1023 30.21 852 25.16 8.1 46.6 46 -2.8 27
13:35 1023 30.21 852 25.16 7.9 46.3 47 -2.8 27
13:40 1023 30.21 852 25.16 8.2 46.7 45 -3.1 26.4
13:45 1023 30.21 852 25.16 8.4 47.1 44 -3 26.6
13:50 1023 30.21 852 25.16 8.4 47 46 -2.7 27.2
13:55 1023 30.21 852 25.16 8 46.3 46 -3 26.7
14:00 1023 30.21 852 25.16 7.9 46.3 46 -3.1 26.5
14:05 1023 30.21 852 25.16 8.1 46.6 44 -3.2 26.2
14:10 1023 30.21 852 25.16 8.3 46.9 44 -3.2 26.2
14:15 1023 30.21 852 25.16 8.7 47.6 43 -3.2 26.2
14:20 1023 30.21 852 25.16 8.3 47 44 -3.3 26.1
14:25 1023 30.21 852 25.16 8.3 47 43 -3.4 25.9
14:30 1023 30.21 852 25.16 8.4 47.1 44 -3.1 26.4
14:35 1023 30.21 852 25.16 8.7 47.6 42 -3.4 25.9
14:40 1023 30.21 852 25.16 8.7 47.6 43 -3.2 26.2
14:45 1023 30.21 853 25.19 8.6 47.4 43 -3.3 26.1
14:50 1023 30.21 853 25.19 8.7 47.7 43 -3 26.5
14:55 1024 30.24 853 25.19 8.2 46.7 46 -2.7 27.2
15:00 1024 30.24 853 25.19 8.5 47.3 44 -2.9 26.8
15:05 1024 30.24 853 25.19 8.5 47.2 46 -2.4 27.7
15:10 1024 30.24 853 25.19 8.2 46.7 46 -2.6 27.3
15:15 1024 30.24 853 25.19 8 46.4 46 -2.8 27
15:20 1024 30.24 853 25.19 8.1 46.5 46 -2.7 27.1
15:25 1024 30.24 853 25.19 7.8 46.1 47 -2.8 26.9
15:30 1024 30.24 853 25.19 7.5 45.5 48 -2.8 27
15:35 1024 30.24 853 25.19 7.3 45.2 49 -2.5 27.4
15:40 1024 30.24 853 25.19 7.6 45.7 44 -3.8 25.2
15:45 1024 30.24 853 25.19 8.1 46.5 43 -3.7 25.4
15:50 1024 30.24 853 25.19 8.2 46.7 44 -3.5 25.8
15:55 1024 30.24 853 25.19 8.3 47 43 -3.4 25.9
16:00 1024 30.24 854 25.22 8.4 47.2 43 -3.4 25.9
16:05 1024 30.24 854 25.22 7.7 45.9 46 -3.2 26.2
16:10 1024 30.24 854 25.22 7.7 45.9 45 -3.6 25.6
16:15 1025 30.27 854 25.22 7.7 45.9 45 -3.6 25.6
16:20 1025 30.27 854 25.22 7.6 45.6 45 -3.6 25.5
16:25 1025 30.27 854 25.22 7.4 45.3 45 -3.7 25.4
16:30 1025 30.27 854 25.22 7.3 45.1 45 -3.8 25.2
16:35 1025 30.27 854 25.22 6.8 44.2 46 -3.9 25
16:40 1025 30.27 854 25.22 7.2 44.9 46 -3.8 25.2
16:45 1025 30.27 854 25.22 7.1 44.7 46 -3.6 25.5
16:50 1025 30.27 854 25.22 6.9 44.3 47 -3.6 25.5
16:55 1025 30.27 855 25.25 6.5 43.8 48 -3.6 25.4
17:00 1025 30.27 855 25.25 6.2 43.2 47 -4.2 24.5
17:05 1026 30.3 855 25.25 5.8 42.5 49 -4.2 24.5
17:10 1026 30.3 855 25.25 5.6 42.2 48 -4.4 24
17:15 1026 30.3 855 25.25 5.5 41.9 49 -4.4 24
17:20 1026 30.3 855 25.25 5.7 42.3 48 -4.3 24.3
17:25 1026 30.3 855 25.25 5.6 42.1 48 -4.4 24.1
17:30 1026 30.3 855 25.25 5.4 41.7 48 -4.8 23.3
17:35 1026 30.3 855 25.25 5 41 49 -5 23.1
17:40 1026 30.3 855 25.25 4.7 40.5 49 -5 23
17:45 1026 30.3 856 25.28 4.8 40.7 49 -4.9 23.2
17:50 1026 30.3 856 25.28 4.7 40.4 49 -5 22.9
17:55 1027 30.33 856 25.28 4.4 40 49 -5.2 22.6
18:00 1027 30.33 856 25.28 4.4 39.9 49 -5.3 22.4
18:05 1027 30.33 856 25.28 4.3 39.8 49 -5.6 22
18:10 1027 30.33 856 25.28 4.3 39.7 49 -5.6 21.9
18:15 1027 30.33 856 25.28 4.2 39.5 48 -5.7 21.7
18:20 1027 30.33 856 25.28 4.2 39.6 49 -5.7 21.8
18:25 1027 30.33 857 25.31 4.1 39.4 49 -5.7 21.8
18:30 1027 30.33 857 25.31 3.9 39.1 49 -5.7 21.8
18:35 1028 30.36 857 25.31 3.8 38.8 50 -5.7 21.7
18:40 1028 30.36 857 25.31 3.8 38.8 49 -5.8 21.5
18:45 1028 30.36 857 25.31 3.5 38.2 51 -5.8 21.5
18:50 1028 30.36 857 25.31 3.2 37.7 51 -6.1 21
18:55 1028 30.36 857 25.31 3.2 37.8 51 -5.9 21.3
19:00 1028 30.36 857 25.31 3.3 38 49 -6.3 20.7
19:05 1028 30.36 857 25.31 3.1 37.6 52 -5.9 21.5
19:10 1028 30.36 857 25.31 2.7 36.8 52 -6.3 20.7
19:15 1028 30.36 857 25.31 2.5 36.4 54 -6 21.2
19:20 1028 30.36 857 25.31 2.4 36.3 53 -6.2 20.8
19:25 1028 30.36 858 25.34 2.3 36.2 54 -6.1 21.1
19:30 1028 30.36 858 25.34 2.3 36.2 54 -6 21.2
19:35 1028 30.36 858 25.34 2.2 35.9 56 -5.7 21.7
19:40 1029 30.39 858 25.34 1.9 35.5 56 -5.9 21.4
19:45 1029 30.39 858 25.34 1.8 35.3 54 -6.6 20.1
19:50 1029 30.39 858 25.34 1.8 35.3 53 -6.9 19.6
19:55 1029 30.39 858 25.34 2 35.6 52 -6.8 19.8
20:00 1029 30.39 858 25.34 2 35.5 54 -6.4 20.4
20:05 1029 30.39 858 25.34 1.7 35 55 -6.4 20.4
20:10 1029 30.39 858 25.34 1.4 34.5 56 -6.4 20.4
20:15 1029 30.39 858 25.34 1.4 34.4 56 -6.5 20.2
20:20 1029 30.39 858 25.34 1.4 34.5 55 -6.7 20
20:25 1029 30.39 858 25.34 1.3 34.3 55 -6.9 19.6
20:30 1029 30.39 858 25.34 1.1 34.1 57 -6.5 20.3
20:35 1029 30.39 858 25.34 1.1 34.1 57 -6.5 20.4
20:40 1029 30.39 858 25.34 1.2 34.2 59 -6 21.3
20:45 1029 30.39 858 25.34 1.3 34.3 56 -6.6 20.2
20:50 1029 30.39 859 25.37 1.3 34.3 57 -6.3 20.6
20:55 1029 30.39 859 25.37 1.1 34 57 -6.5 20.2
21:00 1029 30.39 859 25.37 1.2 34.1 56 -6.6 20.1
21:05 1029 30.39 859 25.37 1.3 34.3 56 -6.5 20.2
21:10 1030 30.42 859 25.37 1.3 34.4 56 -6.4 20.4
21:15 1030 30.42 859 25.37 1.3 34.4 55 -6.6 20.1
21:20 1030 30.42 859 25.37 1.5 34.6 54 -6.9 19.5
21:25 1030 30.42 859 25.37 1.4 34.4 54 -7 19.4
21:30 1030 30.42 859 25.37 1.3 34.4 55 -6.9 19.7
21:35 1030 30.42 859 25.37 1.4 34.5 57 -6.1 21
21:40 1030 30.42 859 25.37 1.1 34 59 -6 21.3
21:45 1029 30.39 859 25.37 1 33.8 63 -5.3 22.5
21:50 1030 30.42 859 25.37 0.8 33.4 64 -5.3 22.5
21:55 1030 30.42 859 25.37 0.9 33.6 63 -5.3 22.4
22:00 1030 30.42 859 25.37 0.7 33.3 65 -5 23
22:05 1030 30.42 859 25.37 0.8 33.4 63 -5.4 22.2
22:10 1030 30.42 859 25.37 0.7 33.2 66 -5 23
22:15 1030 30.42 859 25.37 0.6 33.2 66 -4.9 23.1
22:20 1030 30.42 859 25.37 0.6 33.1 67 -4.8 23.4
22:25 1030 30.42 859 25.37 0.6 33.1 67 -4.8 23.3
22:30 1030 30.42 859 25.37 0.6 33 68 -4.7 23.5
22:35 1030 30.42 859 25.37 0.5 32.8 68 -4.8 23.4
22:40 1030 30.42 859 25.37 0.4 32.8 67 -5 23.1
22:45 1030 30.42 859 25.37 0.4 32.7 67 -5 22.9
22:50 1030 30.42 859 25.37 0.3 32.5 68 -4.8 23.3
22:55 1030 30.42 859 25.37 0.2 32.4 69 -4.8 23.4
23:00 1030 30.42 859 25.37 0.2 32.3 68 -5 23.1
23:05 1030 30.42 859 25.37 0.2 32.4 68 -5.1 22.9
23:10 1030 30.42 859 25.37 0.2 32.4 69 -4.7 23.5
23:15 1030 30.42 859 25.37 0.2 32.3 69 -4.8 23.3
23:20 1030 30.42 859 25.37 0.1 32.2 69 -4.9 23.2
23:25 1029 30.39 859 25.37 0 32 70 -4.8 23.4
23:30 1029 30.39 859 25.37 -0.1 31.7 71 -4.7 23.5
23:35 1029 30.39 859 25.37 -0.3 31.5 72 -4.7 23.6
23:40 1029 30.39 859 25.37 -0.4 31.3 72 -4.8 23.3
23:45 1029 30.39 859 25.37 -0.4 31.4 71 -5 23
23:50 1029 30.39 859 25.37 -0.3 31.5 71 -5 23.1
23:55 1029 30.39 859 25.37 -0.4 31.4 69 -5.4 22.3
24:00 1029 30.39 859 25.37 -0.2 31.7 67 -5.6 21.8